Estación Meteorológica Peña el Pijo (Robertgarden) [ 09/24/17 17:52:43 CEST ]

Fecha Hora Presion(HPa) Temp (°C) Humedad % Rocio (°C) Viento ( m/s) Direccion Lluvia 1Hora(mm) Lluvia 24H(mm) LLuvia Total(mm)
2017-Aug-05 01:01:34 1013.300 20.2 49 9.2         1437.96
2017-Aug-05 02:01:37 1013.300 18.6 54 9.1         1437.96
2017-Aug-05 03:01:45 1012.900 18.1 56 9.1         1437.96
2017-Aug-05 04:01:33 1012.700 17.5 56 8.6         1437.96
2017-Aug-05 05:01:27 1012.400 16.2 60 8.5         1437.96
2017-Aug-05 06:01:53 1012.400 15.6 62 8.4         1437.96
2017-Aug-05 07:01:33 1012.300 14.9 65 8.3         1437.96
2017-Aug-05 08:01:41 1012.300 15.4 67 9.3         1437.96
2017-Aug-05 09:01:55 1012.300 23.6 55 14.0         1437.96
2017-Aug-05 10:01:40 1012.500 31.6 43 17.4         1437.96
2017-Aug-05 11:01:09 1012.500 36.8 27 14.6         1437.96
2017-Aug-05 12:01:50 1012.600 39.3 20 12.2         1437.96
2017-Aug-05 13:01:44 1012.200 38.6 19 10.7         1437.96
2017-Aug-05 14:01:49 1011.700 38.9 18 9.9         1437.96
2017-Aug-05 15:01:58 1011.000 41.4 17 10.9         1437.96
2017-Aug-05 16:01:52 1010.400 37.9 18 9.1         1437.96
2017-Aug-05 17:01:43 1010.100 35.4 24 11.5         1437.96
2017-Aug-05 18:01:40 1010.200 33.5 27 11.8 2.4 SSW     1437.96
2017-Aug-05 19:01:36 1010.300 35.4 27 13.4         1437.96
2017-Aug-05 20:01:56 1010.100 33.5 28 12.4         1437.96
2017-Aug-05 21:01:45 1010.700 29.6 34 12.0         1437.96
2017-Aug-05 22:01:56 1011.300 25.6 42 11.7         1437.96
2017-Aug-05 23:01:41 1012.100 22.1 49 10.9         1437.96

Temperatura Máxima:41°    Temperatura Mínima:14°
Presión Máxima:1013.300 Hpa    Presión Mínima:1010.100 Hpa


Volver